createdAt,value
2023-05-21T00:01:25.990Z,15.76
2023-05-21T00:03:53.391Z,15.80
2023-05-21T00:06:20.996Z,15.83
2023-05-21T00:08:48.394Z,15.87
2023-05-21T00:11:15.615Z,15.89
2023-05-21T00:13:42.797Z,15.93
2023-05-21T00:16:11.267Z,15.93
2023-05-21T00:18:40.416Z,15.92
2023-05-21T00:21:07.628Z,15.97
2023-05-21T00:23:37.826Z,15.97
2023-05-21T00:26:04.935Z,15.97
2023-05-21T00:28:32.009Z,15.98
2023-05-21T00:30:59.187Z,15.98
2023-05-21T00:33:26.602Z,15.98
2023-05-21T00:35:53.843Z,16.00
2023-05-21T00:38:22.137Z,15.98
2023-05-21T00:40:50.047Z,15.96
2023-05-21T00:43:17.145Z,15.96
2023-05-21T00:45:44.591Z,15.92
2023-05-21T00:48:12.483Z,15.90
2023-05-21T00:50:40.647Z,15.91
2023-05-21T00:53:12.766Z,15.87
2023-05-21T00:55:40.303Z,15.84
2023-05-21T00:58:08.022Z,15.78
2023-05-21T01:00:35.942Z,15.73
2023-05-21T01:03:04.448Z,15.72
2023-05-21T01:05:32.426Z,15.65
2023-05-21T01:07:59.613Z,15.61
2023-05-21T01:10:27.254Z,15.57
2023-05-21T01:12:55.579Z,15.54
2023-05-21T01:15:23.138Z,15.46
2023-05-21T01:17:51.602Z,15.37
2023-05-21T01:20:20.237Z,15.32
2023-05-21T01:22:55.160Z,15.24
2023-05-21T01:25:23.831Z,15.18
2023-05-21T01:27:51.919Z,15.06
2023-05-21T01:30:21.244Z,14.95
2023-05-21T01:32:57.678Z,14.90
2023-05-21T01:35:36.620Z,14.89
2023-05-21T01:38:43.018Z,14.86
2023-05-21T01:41:14.350Z,14.75
2023-05-21T01:43:44.071Z,14.68
2023-05-21T01:46:18.001Z,14.69
2023-05-21T01:48:45.510Z,14.70
2023-05-21T01:51:13.017Z,14.69
2023-05-21T01:53:40.957Z,14.62
2023-05-21T01:56:08.764Z,14.60
2023-05-21T01:58:36.088Z,14.63
2023-05-21T02:01:04.541Z,14.58
2023-05-21T02:03:31.899Z,14.55
2023-05-21T02:05:59.420Z,14.51
2023-05-21T02:08:27.974Z,14.51
2023-05-21T02:10:55.615Z,14.46
2023-05-21T02:13:26.794Z,14.37
2023-05-21T02:15:55.008Z,14.37
2023-05-21T02:18:22.683Z,14.41
2023-05-21T02:20:50.063Z,14.38
2023-05-21T02:23:17.380Z,14.38
2023-05-21T02:25:44.592Z,14.37
2023-05-21T02:28:12.792Z,14.31
2023-05-21T02:30:39.972Z,14.30
2023-05-21T02:33:09.334Z,14.27
2023-05-21T02:35:36.966Z,14.21
2023-05-21T02:38:04.403Z,14.21
2023-05-21T02:40:33.214Z,14.16
2023-05-21T02:43:00.583Z,14.10
2023-05-21T02:45:28.508Z,14.09
2023-05-21T02:47:55.800Z,14.06
2023-05-21T02:50:23.408Z,14.08
2023-05-21T02:52:50.680Z,14.07
2023-05-21T02:55:17.905Z,14.07
2023-05-21T02:57:45.161Z,14.04
2023-05-21T03:00:13.422Z,14.06
2023-05-21T03:02:40.902Z,14.00
2023-05-21T03:05:08.185Z,13.97
2023-05-21T03:07:35.602Z,13.96
2023-05-21T03:10:02.722Z,13.90
2023-05-21T03:12:29.861Z,13.89
2023-05-21T03:14:56.981Z,13.88
2023-05-21T03:17:24.233Z,13.87
2023-05-21T03:19:52.088Z,13.87
2023-05-21T03:22:20.016Z,13.84
2023-05-21T03:24:47.198Z,13.82
2023-05-21T03:27:14.436Z,13.79
2023-05-21T03:29:43.151Z,13.79
2023-05-21T03:32:10.672Z,13.75
2023-05-21T03:34:37.922Z,13.78
2023-05-21T03:37:05.608Z,13.80
2023-05-21T03:39:32.699Z,13.75
2023-05-21T03:42:00.286Z,13.79
2023-05-21T03:44:27.898Z,13.81
2023-05-21T03:46:54.985Z,13.81
2023-05-21T03:49:22.170Z,13.80
2023-05-21T03:51:49.274Z,13.81
2023-05-21T03:54:16.447Z,13.83
2023-05-21T03:56:43.883Z,13.86
2023-05-21T03:59:10.975Z,13.89
2023-05-21T04:01:39.075Z,13.91
2023-05-21T04:04:06.482Z,13.95
2023-05-21T04:06:33.743Z,13.99
2023-05-21T04:09:01.164Z,14.03
2023-05-21T04:11:28.306Z,14.05
2023-05-21T04:13:55.375Z,14.03
2023-05-21T04:16:22.656Z,14.08
2023-05-21T04:18:49.866Z,14.08
2023-05-21T04:21:16.996Z,14.10
2023-05-21T04:23:44.094Z,14.16
2023-05-21T04:26:12.712Z,14.22
2023-05-21T04:28:41.988Z,14.27
2023-05-21T04:31:09.416Z,14.28
2023-05-21T04:33:36.532Z,14.31
2023-05-21T04:36:03.889Z,14.37
2023-05-21T04:38:31.118Z,14.43
2023-05-21T04:40:58.763Z,14.49
2023-05-21T04:43:26.543Z,14.55
2023-05-21T04:45:55.069Z,14.61
2023-05-21T04:48:26.905Z,14.66
2023-05-21T04:50:55.899Z,14.70
2023-05-21T04:53:23.840Z,14.77
2023-05-21T04:55:50.946Z,14.84
2023-05-21T04:58:19.120Z,14.92
2023-05-21T05:00:46.995Z,14.95
2023-05-21T05:03:14.640Z,15.02
2023-05-21T05:05:42.280Z,15.08
2023-05-21T05:08:09.394Z,15.14
2023-05-21T05:10:36.524Z,15.22
2023-05-21T05:13:03.773Z,15.30
2023-05-21T05:15:31.125Z,15.39
2023-05-21T05:17:58.351Z,15.51
2023-05-21T05:20:25.498Z,15.59
2023-05-21T05:22:52.717Z,15.66
2023-05-21T05:25:20.096Z,15.72
2023-05-21T05:27:47.241Z,15.80
2023-05-21T05:30:14.356Z,15.88
2023-05-21T05:32:41.501Z,15.93
2023-05-21T05:35:09.204Z,16.01
2023-05-21T05:37:36.300Z,16.08
2023-05-21T05:40:04.570Z,16.18
2023-05-21T05:42:31.703Z,16.29
2023-05-21T05:44:58.845Z,16.38
2023-05-21T05:47:26.720Z,16.48
2023-05-21T05:49:53.820Z,16.56
2023-05-21T05:52:21.211Z,16.64
2023-05-21T05:54:48.488Z,16.76
2023-05-21T05:57:15.597Z,16.87
2023-05-21T05:59:42.720Z,16.96
2023-05-21T06:02:10.070Z,17.06
2023-05-21T06:04:37.389Z,17.19
2023-05-21T06:07:04.629Z,17.30
2023-05-21T06:09:31.762Z,17.39
2023-05-21T06:11:58.897Z,17.51
2023-05-21T06:14:25.995Z,17.66
2023-05-21T06:16:53.093Z,17.86
2023-05-21T06:19:20.309Z,18.08
2023-05-21T06:21:47.634Z,18.31
2023-05-21T06:24:15.431Z,18.52
2023-05-21T06:26:42.635Z,18.69
2023-05-21T06:29:09.709Z,18.91
2023-05-21T06:31:36.794Z,19.15
2023-05-21T06:34:04.149Z,19.33
2023-05-21T06:36:32.304Z,19.51
2023-05-21T06:38:59.501Z,19.69
2023-05-21T06:41:26.753Z,19.89
2023-05-21T06:43:53.974Z,20.11
2023-05-21T06:46:21.500Z,20.35
2023-05-21T06:48:48.667Z,20.47
2023-05-21T06:51:15.811Z,20.57
2023-05-21T06:53:43.126Z,20.77
2023-05-21T06:56:10.231Z,20.96
2023-05-21T06:58:37.307Z,21.10
2023-05-21T07:01:04.401Z,21.20
2023-05-21T07:03:31.725Z,21.30
2023-05-21T07:05:58.917Z,21.30
2023-05-21T07:08:25.991Z,21.43
2023-05-21T07:10:53.127Z,21.61
2023-05-21T07:13:20.267Z,21.73
2023-05-21T07:15:47.442Z,21.80
2023-05-21T07:18:14.613Z,21.89
2023-05-21T07:20:41.760Z,22.06
2023-05-21T07:23:08.849Z,22.21
2023-05-21T07:25:36.201Z,22.25
2023-05-21T07:28:05.914Z,22.27
2023-05-21T07:30:33.676Z,22.22
2023-05-21T07:33:00.928Z,22.09
2023-05-21T07:35:29.007Z,22.15
2023-05-21T07:37:56.151Z,22.19
2023-05-21T07:40:23.276Z,22.34
2023-05-21T07:42:50.598Z,22.49
2023-05-21T07:45:17.700Z,22.50
2023-05-21T07:47:45.727Z,22.42
2023-05-21T07:50:14.074Z,22.47
2023-05-21T07:52:41.286Z,22.50
2023-05-21T07:55:09.205Z,22.48
2023-05-21T07:57:36.736Z,22.45
2023-05-21T08:00:05.664Z,22.31
2023-05-21T08:02:34.348Z,22.31
2023-05-21T08:05:01.859Z,22.27
2023-05-21T08:07:29.093Z,22.31
2023-05-21T08:09:56.510Z,22.31
2023-05-21T08:12:23.592Z,22.41
2023-05-21T08:14:50.771Z,22.56
2023-05-21T08:17:18.062Z,22.62
2023-05-21T08:19:45.151Z,22.77
2023-05-21T08:22:12.315Z,22.89
2023-05-21T08:24:39.448Z,22.88
2023-05-21T08:27:07.698Z,22.90
2023-05-21T08:29:35.191Z,22.96
2023-05-21T08:32:02.387Z,23.07
2023-05-21T08:34:29.641Z,23.09
2023-05-21T08:36:56.776Z,23.15
2023-05-21T08:39:23.860Z,23.19
2023-05-21T08:41:53.156Z,23.26
2023-05-21T08:44:21.660Z,23.48
2023-05-21T08:46:49.929Z,23.71
2023-05-21T08:49:17.709Z,23.92
2023-05-21T08:51:45.756Z,23.95
2023-05-21T08:54:13.974Z,24.04
2023-05-21T08:56:45.789Z,24.19
2023-05-21T08:59:13.701Z,24.39
2023-05-21T09:01:42.303Z,24.61
2023-05-21T09:04:20.219Z,24.72
2023-05-21T09:06:48.602Z,24.98
2023-05-21T09:09:29.449Z,25.10
2023-05-21T09:11:56.568Z,24.99
2023-05-21T09:14:23.856Z,24.94
2023-05-21T09:16:51.036Z,24.95
2023-05-21T09:19:21.751Z,24.95
2023-05-21T09:21:51.555Z,24.99
2023-05-21T09:24:22.609Z,25.17
2023-05-21T09:26:49.799Z,25.30
2023-05-21T09:29:16.920Z,25.15
2023-05-21T09:31:45.098Z,25.26
2023-05-21T09:34:14.027Z,25.24
2023-05-21T09:36:41.158Z,25.25
2023-05-21T09:39:08.814Z,25.25
2023-05-21T09:41:36.852Z,25.15
2023-05-21T09:44:04.575Z,25.22
2023-05-21T09:46:41.688Z,25.26
2023-05-21T09:49:26.107Z,25.32
2023-05-21T09:51:59.084Z,25.36
2023-05-21T09:54:31.202Z,25.43
2023-05-21T09:57:01.410Z,25.49
2023-05-21T09:59:40.993Z,25.54
2023-05-21T10:02:21.796Z,25.58
2023-05-21T10:04:50.791Z,25.75
2023-05-21T10:07:19.218Z,25.64
2023-05-21T10:09:48.674Z,25.62
2023-05-21T10:12:18.112Z,25.53
2023-05-21T10:14:46.959Z,25.53
2023-05-21T10:17:14.667Z,25.36
2023-05-21T10:19:42.270Z,25.48
2023-05-21T10:22:09.955Z,25.38
2023-05-21T10:24:37.667Z,25.28
2023-05-21T10:27:05.152Z,25.27
2023-05-21T10:29:32.329Z,25.43
2023-05-21T10:32:01.058Z,25.43
2023-05-21T10:34:28.751Z,25.37
2023-05-21T10:36:57.252Z,25.52
2023-05-21T10:39:25.639Z,25.36
2023-05-21T10:42:19.024Z,25.41
2023-05-21T10:45:04.300Z,25.53
2023-05-21T10:47:54.586Z,25.41
2023-05-21T10:50:50.799Z,25.29
2023-05-21T10:53:20.584Z,25.18
2023-05-21T10:56:09.068Z,25.33
2023-05-21T10:59:02.845Z,25.57
2023-05-21T11:01:33.989Z,25.54
2023-05-21T11:04:04.132Z,25.46
2023-05-21T11:06:31.349Z,25.34
2023-05-21T11:09:03.077Z,25.23
2023-05-21T11:11:46.214Z,25.15
2023-05-21T11:14:31.854Z,25.19
2023-05-21T11:16:59.899Z,25.22
2023-05-21T11:19:37.961Z,25.19
2023-05-21T11:22:22.827Z,25.11
2023-05-21T11:24:51.338Z,25.01
2023-05-21T11:27:40.989Z,25.02
2023-05-21T11:30:09.157Z,25.04
2023-05-21T11:32:40.614Z,25.02
2023-05-21T11:35:08.057Z,25.25
2023-05-21T11:37:36.107Z,25.32
2023-05-21T11:40:25.796Z,25.49
2023-05-21T11:42:56.707Z,25.52
2023-05-21T11:45:28.919Z,25.69
2023-05-21T11:47:56.203Z,25.59
2023-05-21T11:50:23.399Z,25.48
2023-05-21T11:52:51.007Z,25.50
2023-05-21T11:55:25.866Z,25.44
2023-05-21T11:57:53.834Z,25.51
2023-05-21T12:00:21.678Z,25.60
2023-05-21T12:02:53.026Z,25.75
2023-05-21T12:05:20.908Z,25.78
2023-05-21T12:07:49.960Z,25.78
2023-05-21T12:10:21.642Z,25.75
2023-05-21T12:12:55.600Z,25.71
2023-05-21T12:15:25.239Z,25.68
2023-05-21T12:17:55.123Z,25.71
2023-05-21T12:20:22.548Z,25.73
2023-05-21T12:22:50.236Z,25.80
2023-05-21T12:25:21.135Z,25.83
2023-05-21T12:27:50.879Z,25.89
2023-05-21T12:30:18.206Z,25.87
2023-05-21T12:32:47.011Z,25.93
2023-05-21T12:35:22.036Z,25.93
2023-05-21T12:37:51.624Z,26.05
2023-05-21T12:40:19.113Z,26.01
2023-05-21T12:42:46.429Z,26.05
2023-05-21T12:45:14.089Z,26.04
2023-05-21T12:47:41.346Z,26.11
2023-05-21T12:50:11.606Z,26.09
2023-05-21T12:52:40.390Z,26.06
2023-05-21T12:55:09.549Z,25.89
2023-05-21T12:57:38.912Z,25.89
2023-05-21T13:00:09.172Z,25.69
2023-05-21T13:02:41.825Z,25.67
2023-05-21T13:05:17.632Z,25.74
2023-05-21T13:07:47.171Z,25.77
2023-05-21T13:10:16.592Z,25.70
2023-05-21T13:12:44.798Z,25.68
2023-05-21T13:15:12.311Z,25.70
2023-05-21T13:17:39.572Z,25.76
2023-05-21T13:20:21.375Z,25.75
2023-05-21T13:22:50.662Z,25.66
2023-05-21T13:25:24.569Z,25.72
2023-05-21T13:27:52.918Z,25.75
2023-05-21T13:30:20.898Z,25.76
2023-05-21T13:32:48.222Z,25.81
2023-05-21T13:35:16.759Z,25.70
2023-05-21T13:37:45.238Z,25.74
2023-05-21T13:40:17.059Z,25.79
2023-05-21T13:42:45.726Z,25.93
2023-05-21T13:45:15.476Z,26.11
2023-05-21T13:47:44.259Z,26.10
2023-05-21T13:50:12.237Z,26.05
2023-05-21T13:52:39.358Z,26.03
2023-05-21T13:55:06.722Z,26.01
2023-05-21T13:57:33.849Z,26.05
2023-05-21T14:00:01.083Z,25.92
2023-05-21T14:02:28.388Z,25.83
2023-05-21T14:04:55.835Z,25.71
2023-05-21T14:07:22.993Z,25.69
2023-05-21T14:09:50.156Z,25.64
2023-05-21T14:12:17.404Z,25.68
2023-05-21T14:14:44.683Z,25.65
2023-05-21T14:17:11.882Z,25.70
2023-05-21T14:19:39.030Z,25.82
2023-05-21T14:22:06.158Z,25.90
2023-05-21T14:24:33.270Z,25.94
2023-05-21T14:27:00.373Z,25.84
2023-05-21T14:29:28.474Z,25.75
2023-05-21T14:31:55.609Z,25.86
2023-05-21T14:34:22.748Z,25.99
2023-05-21T14:36:49.858Z,25.95
2023-05-21T14:39:17.227Z,26.01
2023-05-21T14:41:44.441Z,26.06
2023-05-21T14:44:11.615Z,26.13
2023-05-21T14:46:39.541Z,26.16
2023-05-21T14:49:06.773Z,26.12
2023-05-21T14:51:33.878Z,26.09
2023-05-21T14:54:01.006Z,26.05
2023-05-21T14:56:28.219Z,26.02
2023-05-21T14:58:56.298Z,25.99
2023-05-21T15:01:23.588Z,25.96
2023-05-21T15:03:51.345Z,25.99
2023-05-21T15:06:18.640Z,25.84
2023-05-21T15:08:45.865Z,25.86
2023-05-21T15:11:14.420Z,25.78
2023-05-21T15:13:41.559Z,25.72
2023-05-21T15:16:08.769Z,25.73
2023-05-21T15:18:36.066Z,25.70
2023-05-21T15:21:03.236Z,25.66
2023-05-21T15:23:30.461Z,25.61
2023-05-21T15:25:57.592Z,25.64
2023-05-21T15:28:25.204Z,25.61
2023-05-21T15:30:52.462Z,25.55
2023-05-21T15:33:19.572Z,25.53
2023-05-21T15:35:46.760Z,25.42
2023-05-21T15:38:13.936Z,25.42
2023-05-21T15:40:44.300Z,25.41
2023-05-21T15:43:11.453Z,25.41
2023-05-21T15:45:39.144Z,25.39
2023-05-21T15:48:07.068Z,25.38
2023-05-21T15:50:35.734Z,25.35
2023-05-21T15:53:04.196Z,25.35
2023-05-21T15:55:34.186Z,25.35
2023-05-21T15:58:02.864Z,25.34
2023-05-21T16:00:30.199Z,25.37
2023-05-21T16:02:57.325Z,25.31
2023-05-21T16:05:24.513Z,25.31
2023-05-21T16:07:51.604Z,25.25
2023-05-21T16:10:18.804Z,25.26
2023-05-21T16:12:45.980Z,25.22
2023-05-21T16:15:13.096Z,25.20
2023-05-21T16:17:40.553Z,25.16
2023-05-21T16:20:07.912Z,25.15
2023-05-21T16:22:34.983Z,25.11
2023-05-21T16:25:02.830Z,25.06
2023-05-21T16:27:29.947Z,24.99
2023-05-21T16:29:57.242Z,24.95
2023-05-21T16:32:26.567Z,24.97
2023-05-21T16:34:53.798Z,24.96
2023-05-21T16:37:21.338Z,24.93
2023-05-21T16:39:48.450Z,24.87
2023-05-21T16:42:15.534Z,24.83
2023-05-21T16:44:42.636Z,24.81
2023-05-21T16:47:09.843Z,24.70
2023-05-21T16:49:36.961Z,24.66
2023-05-21T16:52:04.199Z,24.64
2023-05-21T16:54:31.387Z,24.55
2023-05-21T16:56:58.593Z,24.49
2023-05-21T16:59:25.710Z,24.49
2023-05-21T17:01:52.941Z,24.49
2023-05-21T17:04:20.135Z,24.52
2023-05-21T17:06:47.288Z,24.50
2023-05-21T17:09:14.864Z,24.42
2023-05-21T17:11:43.678Z,24.35
2023-05-21T17:14:13.476Z,24.29
2023-05-21T17:16:44.954Z,24.21
2023-05-21T17:19:12.123Z,24.19
2023-05-21T17:21:39.387Z,24.17
2023-05-21T17:24:06.748Z,24.13
2023-05-21T17:26:33.881Z,24.05
2023-05-21T17:29:01.296Z,23.98
2023-05-21T17:31:30.756Z,23.88
2023-05-21T17:33:58.119Z,23.71
2023-05-21T17:36:25.309Z,23.66
2023-05-21T17:38:52.494Z,23.63
2023-05-21T17:41:21.926Z,23.57
2023-05-21T17:43:49.060Z,23.53
2023-05-21T17:46:18.364Z,23.46
2023-05-21T17:48:45.648Z,23.41
2023-05-21T17:51:12.927Z,23.39
2023-05-21T17:53:40.852Z,23.39
2023-05-21T17:56:08.234Z,23.38
2023-05-21T17:58:35.421Z,23.32
2023-05-21T18:01:02.811Z,23.23
2023-05-21T18:03:30.310Z,23.20
2023-05-21T18:05:57.518Z,23.19
2023-05-21T18:08:26.749Z,23.14
2023-05-21T18:10:54.115Z,23.14
2023-05-21T18:13:21.576Z,23.10
2023-05-21T18:15:48.882Z,23.07
2023-05-21T18:18:21.492Z,23.06
2023-05-21T18:20:49.711Z,23.03
2023-05-21T18:23:17.769Z,22.97
2023-05-21T18:25:44.941Z,22.89
2023-05-21T18:28:12.070Z,22.83
2023-05-21T18:30:39.383Z,22.83
2023-05-21T18:33:08.824Z,22.78
2023-05-21T18:35:35.990Z,22.75
2023-05-21T18:38:04.392Z,22.71
2023-05-21T18:40:33.184Z,22.62
2023-05-21T18:43:00.736Z,22.54
2023-05-21T18:45:27.994Z,22.47
2023-05-21T18:47:55.718Z,22.37
2023-05-21T18:50:23.062Z,22.34
2023-05-21T18:52:53.819Z,22.25
2023-05-21T18:55:21.777Z,22.16
2023-05-21T18:57:49.058Z,22.15
2023-05-21T19:00:16.866Z,22.05
2023-05-21T19:02:44.358Z,22.02
2023-05-21T19:05:11.618Z,21.96
2023-05-21T19:07:38.748Z,21.91
2023-05-21T19:10:06.377Z,21.82
2023-05-21T19:12:35.961Z,21.75
2023-05-21T19:15:06.074Z,21.74
2023-05-21T19:17:35.033Z,21.72
2023-05-21T19:20:04.973Z,21.66
2023-05-21T19:22:32.249Z,21.60
2023-05-21T19:25:00.577Z,21.54
2023-05-21T19:27:29.293Z,21.47
2023-05-21T19:29:56.570Z,21.44
2023-05-21T19:32:24.004Z,21.43
2023-05-21T19:34:52.147Z,21.39
2023-05-21T19:37:19.269Z,21.38
2023-05-21T19:39:49.941Z,21.34
2023-05-21T19:42:18.751Z,21.33
2023-05-21T19:44:46.237Z,21.29
2023-05-21T19:47:13.596Z,21.26
2023-05-21T19:49:40.679Z,21.23
2023-05-21T19:52:07.842Z,21.18
2023-05-21T19:54:34.945Z,21.20
2023-05-21T19:57:02.139Z,21.14
2023-05-21T19:59:29.244Z,21.04
2023-05-21T20:01:56.327Z,20.97
2023-05-21T20:04:23.453Z,20.90
2023-05-21T20:06:51.463Z,20.90
2023-05-21T20:09:18.536Z,20.84
2023-05-21T20:11:45.704Z,20.82
2023-05-21T20:14:13.425Z,20.76
2023-05-21T20:16:42.197Z,20.72
2023-05-21T20:19:10.595Z,20.63
2023-05-21T20:21:37.868Z,20.55
2023-05-21T20:24:05.715Z,20.45
2023-05-21T20:26:34.931Z,20.41
2023-05-21T20:29:02.144Z,20.32
2023-05-21T20:31:29.410Z,20.29
2023-05-21T20:33:56.584Z,20.22
2023-05-21T20:36:23.877Z,20.07
2023-05-21T20:38:51.102Z,20.00
2023-05-21T20:41:18.200Z,19.93
2023-05-21T20:43:45.906Z,19.88
2023-05-21T20:46:13.506Z,19.83
2023-05-21T20:48:41.750Z,19.71
2023-05-21T20:51:09.091Z,19.65
2023-05-21T20:53:36.900Z,19.62
2023-05-21T20:56:07.960Z,19.64
2023-05-21T20:58:35.228Z,19.65
2023-05-21T21:01:02.325Z,19.67
2023-05-21T21:03:30.412Z,19.74
2023-05-21T21:05:59.634Z,19.73
2023-05-21T21:08:27.675Z,19.73
2023-05-21T21:10:54.869Z,19.77
2023-05-21T21:13:22.286Z,19.80
2023-05-21T21:15:50.048Z,19.82
2023-05-21T21:18:17.528Z,19.84
2023-05-21T21:20:49.430Z,19.88
2023-05-21T21:23:16.592Z,19.90
2023-05-21T21:25:44.386Z,19.96
2023-05-21T21:28:11.984Z,19.99
2023-05-21T21:30:40.865Z,20.04
2023-05-21T21:33:08.547Z,20.09
2023-05-21T21:35:35.983Z,20.07
2023-05-21T21:38:04.860Z,20.07
2023-05-21T21:40:32.107Z,20.04
2023-05-21T21:42:59.237Z,20.03
2023-05-21T21:45:26.510Z,20.04
2023-05-21T21:47:53.720Z,20.04
2023-05-21T21:50:20.913Z,20.04
2023-05-21T21:52:48.828Z,20.03
2023-05-21T21:55:16.057Z,20.03
2023-05-21T21:57:43.170Z,19.98
2023-05-21T22:00:17.263Z,19.91
2023-05-21T22:02:46.497Z,19.88
2023-05-21T22:05:16.926Z,19.85
2023-05-21T22:07:47.228Z,19.84
2023-05-21T22:10:16.101Z,19.78
2023-05-21T22:12:43.945Z,19.62
2023-05-21T22:15:17.928Z,19.55
2023-05-21T22:17:45.317Z,19.45
2023-05-21T22:20:12.720Z,19.40
2023-05-21T22:22:39.817Z,19.30
2023-05-21T22:25:07.119Z,19.25
2023-05-21T22:27:34.252Z,19.12
2023-05-21T22:30:01.362Z,19.04
2023-05-21T22:32:28.476Z,18.99
2023-05-21T22:34:55.642Z,18.92
2023-05-21T22:37:23.699Z,18.83
2023-05-21T22:39:50.841Z,18.80
2023-05-21T22:42:18.408Z,18.73
2023-05-21T22:44:45.537Z,18.61
2023-05-21T22:47:13.925Z,18.56
2023-05-21T22:49:41.070Z,18.54
2023-05-21T22:52:09.452Z,18.52
2023-05-21T22:54:36.694Z,18.49
2023-05-21T22:57:04.055Z,18.46
2023-05-21T22:59:33.987Z,18.39
2023-05-21T23:02:01.210Z,18.32
2023-05-21T23:04:42.741Z,18.24
2023-05-21T23:07:11.652Z,18.15
2023-05-21T23:09:38.808Z,18.08
2023-05-21T23:12:06.466Z,18.02
2023-05-21T23:14:33.758Z,17.94
2023-05-21T23:17:02.279Z,17.91
2023-05-21T23:19:29.818Z,17.84
2023-05-21T23:21:57.192Z,17.78
2023-05-21T23:24:24.298Z,17.70
2023-05-21T23:26:52.379Z,17.65
2023-05-21T23:29:19.493Z,17.65
2023-05-21T23:31:46.897Z,17.64
2023-05-21T23:34:14.201Z,17.60
2023-05-21T23:36:41.315Z,17.55
2023-05-21T23:39:09.227Z,17.51
2023-05-21T23:41:36.425Z,17.48
2023-05-21T23:44:03.640Z,17.43
2023-05-21T23:46:30.896Z,17.36
2023-05-21T23:48:57.975Z,17.28
2023-05-21T23:51:25.264Z,17.24
2023-05-21T23:53:52.406Z,17.21
2023-05-21T23:56:19.545Z,17.13
2023-05-21T23:58:46.627Z,17.08
